createdAt,value
2018-09-03T00:00:44.515Z,3.70
2018-09-03T00:01:44.481Z,7.10
2018-09-03T00:02:44.439Z,3.90
2018-09-03T00:03:44.410Z,4.80
2018-09-03T00:04:44.379Z,4.00
2018-09-03T00:05:44.340Z,4.80
2018-09-03T00:06:44.311Z,3.50
2018-09-03T00:07:44.276Z,5.50
2018-09-03T00:08:44.240Z,5.00
2018-09-03T00:09:44.210Z,4.80
2018-09-03T00:10:44.169Z,4.10
2018-09-03T00:11:44.136Z,4.20
2018-09-03T00:12:44.104Z,6.10
2018-09-03T00:13:44.070Z,5.10
2018-09-03T00:14:44.041Z,4.60
2018-09-03T00:15:44.008Z,3.70
2018-09-03T00:16:43.968Z,4.90
2018-09-03T00:17:43.937Z,3.70
2018-09-03T00:18:43.902Z,4.30
2018-09-03T00:19:43.873Z,7.50
2018-09-03T00:20:43.832Z,4.50
2018-09-03T00:21:43.805Z,4.50
2018-09-03T00:22:43.772Z,6.10
2018-09-03T00:23:43.729Z,5.00
2018-09-03T00:24:43.699Z,4.00
2018-09-03T00:25:43.660Z,3.60
2018-09-03T00:26:43.638Z,5.50
2018-09-03T00:27:43.594Z,3.60
2018-09-03T00:28:43.560Z,3.80
2018-09-03T00:29:43.532Z,3.90
2018-09-03T00:30:43.488Z,4.50
2018-09-03T00:31:43.458Z,4.70
2018-09-03T00:32:43.426Z,4.60
2018-09-03T00:33:43.392Z,4.00
2018-09-03T00:34:43.351Z,5.10
2018-09-03T00:35:43.324Z,6.60
2018-09-03T00:36:43.294Z,4.70
2018-09-03T00:37:43.252Z,4.40
2018-09-03T00:38:43.224Z,4.40
2018-09-03T00:39:43.209Z,5.10
2018-09-03T00:40:43.153Z,4.50
2018-09-03T00:41:43.121Z,3.50
2018-09-03T00:42:43.081Z,3.90
2018-09-03T00:43:43.049Z,3.40
2018-09-03T00:44:43.016Z,3.70
2018-09-03T00:45:42.986Z,4.80
2018-09-03T00:46:42.951Z,3.40
2018-09-03T00:47:42.915Z,6.00
2018-09-03T00:48:42.880Z,3.90
2018-09-03T00:49:42.842Z,4.40
2018-09-03T00:50:42.818Z,5.20
2018-09-03T00:51:42.781Z,4.00
2018-09-03T00:52:42.745Z,3.80
2018-09-03T00:53:42.713Z,4.40
2018-09-03T00:54:42.677Z,5.80
2018-09-03T00:55:42.644Z,6.40
2018-09-03T00:56:42.611Z,4.50
2018-09-03T00:57:42.580Z,5.00
2018-09-03T00:58:42.546Z,4.70
2018-09-03T00:59:42.509Z,6.00
2018-09-03T01:00:42.475Z,5.70
2018-09-03T01:01:42.443Z,4.30
2018-09-03T01:02:42.404Z,4.40
2018-09-03T01:03:42.370Z,4.70
2018-09-03T01:04:42.339Z,5.40
2018-09-03T01:05:42.305Z,5.70
2018-09-03T01:06:42.270Z,6.70
2018-09-03T01:07:42.236Z,4.70
2018-09-03T01:08:42.201Z,5.20
2018-09-03T01:09:42.163Z,4.40
2018-09-03T01:10:42.135Z,5.20
2018-09-03T01:11:42.102Z,6.20
2018-09-03T01:12:42.066Z,4.90
2018-09-03T01:13:42.033Z,5.40
2018-09-03T01:14:41.995Z,4.40
2018-09-03T01:15:41.964Z,6.20
2018-09-03T01:16:41.934Z,3.90
2018-09-03T01:17:41.892Z,5.00
2018-09-03T01:18:41.868Z,3.80
2018-09-03T01:19:41.828Z,6.20
2018-09-03T01:20:41.792Z,3.90
2018-09-03T01:21:41.758Z,5.30
2018-09-03T01:22:41.728Z,4.60
2018-09-03T01:23:41.693Z,4.60
2018-09-03T01:24:41.659Z,4.40
2018-09-03T01:25:41.625Z,4.50
2018-09-03T01:26:41.586Z,4.30
2018-09-03T01:27:41.554Z,3.90
2018-09-03T01:28:41.520Z,5.20
2018-09-03T01:29:41.490Z,4.40
2018-09-03T01:30:41.459Z,3.60
2018-09-03T01:31:41.423Z,5.00
2018-09-03T01:32:41.387Z,6.20
2018-09-03T01:33:41.354Z,6.60
2018-09-03T01:34:41.349Z,4.80
2018-09-03T01:35:41.284Z,4.10
2018-09-03T01:36:41.254Z,5.40
2018-09-03T01:37:41.223Z,5.70
2018-09-03T01:38:41.178Z,4.70
2018-09-03T01:39:41.145Z,4.20
2018-09-03T01:40:41.113Z,4.20
2018-09-03T01:41:41.081Z,3.70
2018-09-03T01:42:41.049Z,6.50
2018-09-03T01:43:41.012Z,4.30
2018-09-03T01:44:40.978Z,5.60
2018-09-03T01:45:40.946Z,5.50
2018-09-03T01:46:40.912Z,4.40
2018-09-03T01:47:40.876Z,4.60
2018-09-03T01:48:40.842Z,5.90
2018-09-03T01:49:40.807Z,5.00
2018-09-03T01:50:40.776Z,4.90
2018-09-03T01:51:40.744Z,4.70
2018-09-03T01:52:40.704Z,4.90
2018-09-03T01:53:40.671Z,5.00
2018-09-03T01:54:40.640Z,3.80
2018-09-03T01:55:40.604Z,5.50
2018-09-03T01:56:40.577Z,4.10
2018-09-03T01:57:40.541Z,5.40
2018-09-03T01:58:40.498Z,6.20
2018-09-03T01:59:40.467Z,4.30
2018-09-03T02:00:40.440Z,4.90
2018-09-03T02:01:40.398Z,6.60
2018-09-03T02:02:40.380Z,5.10
2018-09-03T02:03:40.333Z,4.70
2018-09-03T02:04:40.299Z,4.80
2018-09-03T02:05:40.272Z,4.30
2018-09-03T02:06:40.233Z,3.80
2018-09-03T02:07:40.196Z,4.60
2018-09-03T02:08:40.165Z,4.80
2018-09-03T02:09:40.133Z,4.70
2018-09-03T02:10:40.093Z,6.50
2018-09-03T02:11:40.060Z,4.50
2018-09-03T02:12:40.026Z,5.50
2018-09-03T02:13:39.991Z,5.00
2018-09-03T02:14:39.960Z,4.80
2018-09-03T02:15:39.932Z,7.80
2018-09-03T02:16:39.901Z,4.50
2018-09-03T02:17:39.864Z,4.30
2018-09-03T02:18:39.821Z,5.30
2018-09-03T02:19:39.787Z,4.70
2018-09-03T02:20:39.755Z,4.40
2018-09-03T02:21:39.720Z,5.20
2018-09-03T02:22:39.698Z,3.90
2018-09-03T02:23:39.656Z,4.90
2018-09-03T02:24:39.626Z,5.20
2018-09-03T02:25:39.587Z,6.60
2018-09-03T02:26:39.553Z,5.10
2018-09-03T02:27:39.522Z,5.90
2018-09-03T02:28:39.483Z,3.90
2018-09-03T02:29:39.452Z,5.70
2018-09-03T02:30:39.411Z,4.40
2018-09-03T02:31:39.379Z,5.80
2018-09-03T02:32:39.346Z,4.00
2018-09-03T02:33:39.311Z,3.70
2018-09-03T02:34:39.286Z,4.70
2018-09-03T02:35:39.248Z,4.60
2018-09-03T02:36:39.223Z,5.00
2018-09-03T02:37:39.180Z,6.10
2018-09-03T02:38:39.143Z,5.30
2018-09-03T02:39:39.104Z,4.60
2018-09-03T02:40:39.076Z,4.30
2018-09-03T02:41:39.041Z,4.80
2018-09-03T02:42:39.006Z,5.00
2018-09-03T02:43:38.975Z,4.30
2018-09-03T02:44:38.934Z,4.60
2018-09-03T02:45:38.900Z,5.80
2018-09-03T02:46:38.870Z,4.10
2018-09-03T02:47:38.840Z,4.10
2018-09-03T02:48:38.803Z,4.30
2018-09-03T02:49:38.766Z,5.40
2018-09-03T02:50:38.735Z,5.50
2018-09-03T02:51:38.696Z,5.00
2018-09-03T02:52:38.662Z,4.20
2018-09-03T02:53:38.629Z,4.60
2018-09-03T02:54:38.604Z,5.70
2018-09-03T02:55:38.566Z,4.80
2018-09-03T02:56:38.527Z,5.20
2018-09-03T02:57:38.493Z,4.30
2018-09-03T02:58:38.460Z,4.50
2018-09-03T02:59:38.440Z,5.10
2018-09-03T03:00:38.403Z,4.30
2018-09-03T03:01:38.364Z,6.40
2018-09-03T03:02:38.321Z,5.50
2018-09-03T03:03:38.284Z,4.60
2018-09-03T03:04:38.254Z,4.30
2018-09-03T03:05:38.218Z,6.10
2018-09-03T03:06:38.188Z,5.20
2018-09-03T03:07:38.154Z,5.80
2018-09-03T03:08:38.120Z,3.90
2018-09-03T03:09:38.085Z,5.40
2018-09-03T03:10:38.048Z,4.00
2018-09-03T03:11:38.055Z,3.70
2018-09-03T03:12:37.986Z,5.90
2018-09-03T03:13:37.955Z,6.60
2018-09-03T03:14:37.917Z,5.40
2018-09-03T03:15:37.876Z,5.10
2018-09-03T03:16:37.857Z,5.10
2018-09-03T03:17:37.808Z,4.70
2018-09-03T03:18:37.777Z,5.90
2018-09-03T03:19:37.771Z,5.40
2018-09-03T03:20:37.711Z,6.10
2018-09-03T03:21:37.676Z,4.60
2018-09-03T03:22:37.638Z,5.10
2018-09-03T03:23:37.603Z,5.40
2018-09-03T03:24:37.574Z,4.50
2018-09-03T03:25:37.536Z,5.20
2018-09-03T03:26:37.504Z,6.00
2018-09-03T03:27:37.472Z,4.00
2018-09-03T03:28:37.436Z,4.90
2018-09-03T03:29:37.402Z,6.00
2018-09-03T03:30:37.370Z,5.60
2018-09-03T03:31:37.340Z,6.70
2018-09-03T03:32:37.305Z,5.60
2018-09-03T03:33:37.279Z,5.00
2018-09-03T03:34:37.229Z,4.60
2018-09-03T03:35:37.193Z,6.10
2018-09-03T03:36:37.158Z,6.20
2018-09-03T03:37:37.129Z,4.30
2018-09-03T03:38:37.097Z,4.50
2018-09-03T03:39:37.065Z,4.70
2018-09-03T03:40:37.029Z,5.20
2018-09-03T03:41:36.992Z,7.20
2018-09-03T03:42:36.961Z,5.70
2018-09-03T03:43:36.921Z,5.40
2018-09-03T03:44:36.903Z,5.30
2018-09-03T03:45:36.857Z,6.80
2018-09-03T03:46:36.822Z,6.30
2018-09-03T03:47:36.786Z,6.70
2018-09-03T03:48:36.769Z,4.70
2018-09-03T03:49:36.720Z,9.90
2018-09-03T03:50:36.694Z,4.70
2018-09-03T03:51:36.656Z,5.80
2018-09-03T03:52:36.626Z,5.10
2018-09-03T04:06:35.402Z,4.20
2018-09-03T04:07:35.322Z,4.10
2018-09-03T04:08:35.284Z,4.60
2018-09-03T04:09:35.248Z,5.00
2018-09-03T04:10:35.206Z,6.30
2018-09-03T04:11:35.165Z,5.70
2018-09-03T04:12:35.128Z,6.10
2018-09-03T04:13:35.095Z,5.10
2018-09-03T04:14:35.072Z,6.30
2018-09-03T04:15:35.018Z,5.10
2018-09-03T04:16:34.984Z,6.80
2018-09-03T04:17:34.945Z,7.30
2018-09-03T04:18:34.912Z,5.00
2018-09-03T04:19:34.877Z,5.30
2018-09-03T04:20:34.842Z,5.70
2018-09-03T04:21:34.812Z,6.50
2018-09-03T04:22:34.772Z,6.00
2018-09-03T04:23:34.734Z,5.00
2018-09-03T04:24:34.702Z,6.70
2018-09-03T04:25:34.661Z,6.70
2018-09-03T04:26:34.633Z,6.00
2018-09-03T04:27:34.596Z,5.30
2018-09-03T04:28:34.578Z,6.70
2018-09-03T04:29:34.526Z,5.80
2018-09-03T04:30:34.491Z,5.60
2018-09-03T04:31:34.463Z,5.50
2018-09-03T04:32:34.424Z,4.90
2018-09-03T04:33:34.391Z,5.50
2018-09-03T04:34:34.354Z,4.10
2018-09-03T04:35:34.321Z,5.50
2018-09-03T04:36:34.288Z,5.20
2018-09-03T04:37:34.256Z,6.30
2018-09-03T04:38:34.229Z,5.00
2018-09-03T04:39:34.182Z,4.80
2018-09-03T04:40:34.149Z,6.10
2018-09-03T04:41:34.115Z,5.30
2018-09-03T04:42:34.082Z,7.60
2018-09-03T04:43:34.042Z,6.20
2018-09-03T04:44:34.008Z,5.60
2018-09-03T04:45:33.977Z,7.20
2018-09-03T04:46:33.945Z,5.90
2018-09-03T04:47:33.904Z,7.10
2018-09-03T04:48:33.911Z,5.40
2018-09-03T04:49:33.834Z,5.60
2018-09-03T04:50:33.802Z,5.40
2018-09-03T04:51:33.768Z,5.40
2018-09-03T04:52:33.741Z,4.70
2018-09-03T04:53:33.706Z,5.80
2018-09-03T04:54:33.710Z,6.40
2018-09-03T04:55:33.629Z,5.60
2018-09-03T04:56:33.600Z,6.40
2018-09-03T04:57:33.570Z,5.00
2018-09-03T04:58:33.533Z,4.40
2018-09-03T04:59:33.498Z,6.30
2018-09-03T05:00:33.462Z,5.10
2018-09-03T05:01:33.426Z,5.50
2018-09-03T05:02:33.390Z,5.80
2018-09-03T05:03:33.358Z,5.90
2018-09-03T05:04:33.330Z,6.50
2018-09-03T05:05:33.358Z,6.40
2018-09-03T05:06:33.259Z,5.30
2018-09-03T05:07:33.222Z,7.50
2018-09-03T05:08:33.181Z,7.80
2018-09-03T05:09:33.150Z,7.50
2018-09-03T05:10:33.115Z,6.80
2018-09-03T05:11:33.084Z,5.90
2018-09-03T05:12:33.051Z,6.40
2018-09-03T05:13:33.017Z,6.40
2018-09-03T05:14:32.981Z,8.30
2018-09-03T05:15:32.943Z,8.10
2018-09-03T05:16:32.917Z,6.70
2018-09-03T05:17:32.881Z,6.60
2018-09-03T05:18:32.844Z,7.00
2018-09-03T05:19:32.805Z,7.40
2018-09-03T05:20:32.770Z,6.60
2018-09-03T05:21:32.739Z,7.30
2018-09-03T05:22:32.706Z,9.20
2018-09-03T05:23:32.677Z,7.00
2018-09-03T05:24:32.640Z,6.40
2018-09-03T05:25:32.609Z,6.80
2018-09-03T05:26:32.570Z,7.20
2018-09-03T05:27:32.531Z,6.70
2018-09-03T05:28:32.504Z,7.30
2018-09-03T05:29:32.461Z,7.10
2018-09-03T05:30:32.429Z,6.10
2018-09-03T05:31:32.397Z,6.90
2018-09-03T05:32:32.363Z,7.10
2018-09-03T05:33:32.342Z,7.20
2018-09-03T05:34:32.299Z,6.80
2018-09-03T05:35:32.260Z,6.60
2018-09-03T05:36:32.231Z,8.50
2018-09-03T05:37:32.193Z,7.40
2018-09-03T05:38:32.160Z,7.90
2018-09-03T05:39:32.131Z,5.60
2018-09-03T05:40:32.083Z,5.60
2018-09-03T05:41:32.056Z,6.30
2018-09-03T05:42:32.018Z,6.10
2018-09-03T05:43:32.068Z,8.10
2018-09-03T05:44:31.952Z,7.70
2018-09-03T05:45:31.921Z,6.30
2018-09-03T05:46:31.884Z,6.60
2018-09-03T05:47:31.846Z,7.20
2018-09-03T05:48:31.809Z,6.90
2018-09-03T05:49:31.786Z,8.00
2018-09-03T05:50:31.764Z,7.60
2018-09-03T05:51:31.709Z,7.80
2018-09-03T05:52:31.690Z,7.40
2018-09-03T05:53:31.641Z,9.50
2018-09-03T05:54:31.606Z,7.00
2018-09-03T05:55:31.576Z,7.30
2018-09-03T05:56:31.548Z,9.90
2018-09-03T05:57:31.509Z,7.80
2018-09-03T05:58:31.471Z,9.00
2018-09-03T05:59:31.435Z,6.70
2018-09-03T06:00:31.396Z,6.90
2018-09-03T06:01:31.365Z,7.80
2018-09-03T06:02:31.349Z,7.30
2018-09-03T06:03:31.304Z,7.00
2018-09-03T06:04:31.267Z,6.90
2018-09-03T06:05:31.227Z,6.90
2018-09-03T06:06:31.193Z,6.30
2018-09-03T06:07:31.163Z,6.70
2018-09-03T06:08:31.131Z,7.00
2018-09-03T06:09:31.094Z,6.90
2018-09-03T06:10:31.110Z,8.40
2018-09-03T06:11:31.020Z,6.20
2018-09-03T06:12:30.989Z,5.70
2018-09-03T06:13:30.950Z,6.30
2018-09-03T06:14:30.920Z,6.00
2018-09-03T06:15:30.885Z,6.70
2018-09-03T06:16:30.866Z,7.40
2018-09-03T06:17:30.823Z,7.80
2018-09-03T06:18:30.784Z,8.60
2018-09-03T06:19:30.746Z,6.80
2018-09-03T06:20:30.713Z,8.50
2018-09-03T06:21:30.687Z,7.50
2018-09-03T06:22:30.652Z,7.80
2018-09-03T06:23:30.608Z,5.90
2018-09-03T06:24:30.576Z,7.50
2018-09-03T06:25:30.545Z,7.60
2018-09-03T06:26:30.514Z,9.20
2018-09-03T06:27:30.476Z,7.20
2018-09-03T06:28:30.446Z,8.10
2018-09-03T06:29:30.412Z,8.00
2018-09-03T06:30:30.374Z,7.90
2018-09-03T06:31:30.335Z,7.00
2018-09-03T06:32:30.300Z,7.70
2018-09-03T06:33:30.270Z,7.50
2018-09-03T06:34:30.237Z,7.20
2018-09-03T06:35:30.203Z,8.40
2018-09-03T06:36:30.169Z,8.30
2018-09-03T06:37:30.131Z,8.60
2018-09-03T06:38:30.096Z,7.80
2018-09-03T06:39:30.064Z,8.50
2018-09-03T06:40:30.031Z,6.70
2018-09-03T06:41:29.999Z,8.40
2018-09-03T06:42:29.966Z,6.90
2018-09-03T06:43:29.927Z,7.80
2018-09-03T06:44:29.890Z,11.20
2018-09-03T06:45:29.862Z,7.40
2018-09-03T06:46:29.828Z,7.50
2018-09-03T06:47:29.794Z,12.70
2018-09-03T06:48:29.757Z,9.60
2018-09-03T06:49:29.723Z,6.70
2018-09-03T06:50:29.693Z,8.20
2018-09-03T06:51:29.652Z,8.40
2018-09-03T06:52:29.621Z,10.40
2018-09-03T06:53:29.639Z,7.20
2018-09-03T06:54:29.562Z,9.60
2018-09-03T06:55:29.515Z,10.10
2018-09-03T06:56:29.484Z,7.00
2018-09-03T06:57:29.452Z,8.10
2018-09-03T06:58:29.420Z,7.90
2018-09-03T06:59:29.469Z,9.60
2018-09-03T07:00:29.349Z,8.90
2018-09-03T07:01:29.316Z,9.20
2018-09-03T07:02:29.286Z,7.30
2018-09-03T07:03:29.249Z,8.60
2018-09-03T07:04:29.212Z,8.50
2018-09-03T07:05:29.182Z,7.10
2018-09-03T07:06:29.147Z,7.50
2018-09-03T07:07:29.122Z,10.80
2018-09-03T07:08:29.082Z,9.60
2018-09-03T07:09:29.043Z,8.60
2018-09-03T07:10:29.009Z,7.80
2018-09-03T07:11:28.981Z,12.70
2018-09-03T07:12:28.945Z,9.20
2018-09-03T07:13:28.912Z,7.40
2018-09-03T07:14:28.887Z,9.20
2018-09-03T07:15:28.846Z,10.80
2018-09-03T07:16:28.806Z,8.40
2018-09-03T07:17:28.777Z,7.80
2018-09-03T07:18:28.741Z,6.80
2018-09-03T07:19:28.710Z,6.20
2018-09-03T07:20:28.674Z,6.40
2018-09-03T07:21:28.641Z,6.60
2018-09-03T07:22:28.610Z,6.60
2018-09-03T07:23:28.570Z,9.50
2018-09-03T07:24:28.539Z,11.90
2018-09-03T07:25:28.509Z,10.10
2018-09-03T07:26:28.481Z,8.40
2018-09-03T07:27:28.440Z,8.60
2018-09-03T07:28:28.404Z,8.40
2018-09-03T07:29:28.369Z,8.00
2018-09-03T07:30:28.336Z,7.50
2018-09-03T07:31:28.307Z,7.70
2018-09-03T07:32:28.277Z,8.90
2018-09-03T07:33:28.245Z,8.20
2018-09-03T07:34:28.215Z,9.10
2018-09-03T07:35:28.195Z,8.80
2018-09-03T07:36:28.142Z,8.20
2018-09-03T07:37:28.105Z,7.90
2018-09-03T07:38:28.071Z,10.40
2018-09-03T07:39:28.039Z,9.50
2018-09-03T07:40:28.004Z,10.20
2018-09-03T07:41:27.977Z,10.10
2018-09-03T07:42:27.934Z,7.50
2018-09-03T07:43:27.908Z,9.70
2018-09-03T07:44:27.881Z,7.70
2018-09-03T07:45:27.837Z,10.10
2018-09-03T07:46:27.806Z,10.00
2018-09-03T07:47:27.775Z,10.00
2018-09-03T07:48:27.734Z,7.00
2018-09-03T07:49:27.704Z,8.50
2018-09-03T07:50:27.666Z,9.80
2018-09-03T07:51:27.643Z,9.50
2018-09-03T07:52:27.603Z,8.40
2018-09-03T07:53:27.578Z,10.60
2018-09-03T07:54:27.538Z,8.90
2018-09-03T07:55:27.497Z,9.50
2018-09-03T07:56:27.466Z,8.20
2018-09-03T07:57:27.436Z,7.80
2018-09-03T07:58:27.407Z,7.90
2018-09-03T07:59:27.366Z,7.70
2018-09-03T08:00:27.337Z,9.60
2018-09-03T08:01:27.699Z,7.70
2018-09-03T08:02:27.265Z,8.20
2018-09-03T08:03:27.237Z,8.20
2018-09-03T08:04:27.209Z,8.70
2018-09-03T08:05:27.170Z,7.40
2018-09-03T08:06:27.138Z,9.20
2018-09-03T08:07:27.179Z,9.20
2018-09-03T08:08:27.072Z,8.40
2018-09-03T08:09:27.040Z,10.00
2018-09-03T08:10:27.002Z,10.70
2018-09-03T08:11:26.972Z,8.80
2018-09-03T08:12:26.932Z,10.10
2018-09-03T08:13:26.897Z,8.80
2018-09-03T08:14:26.862Z,7.50
2018-09-03T08:15:26.834Z,8.30
2018-09-03T08:16:26.819Z,9.50
2018-09-03T08:17:26.767Z,10.20
2018-09-03T08:18:26.735Z,10.90
2018-09-03T08:19:26.695Z,8.40
2018-09-03T08:20:26.665Z,8.80
2018-09-03T08:21:26.630Z,10.90
2018-09-03T08:22:26.596Z,10.00
2018-09-03T08:23:26.565Z,9.60
2018-09-03T08:24:26.532Z,11.10
2018-09-03T08:25:26.499Z,10.50
2018-09-03T08:26:26.468Z,8.00
2018-09-03T08:27:26.431Z,10.30
2018-09-03T08:28:26.394Z,10.40
2018-09-03T08:29:26.364Z,8.90
2018-09-03T08:30:26.332Z,9.50
2018-09-03T08:31:26.292Z,10.50
2018-09-03T08:32:26.261Z,11.50
2018-09-03T08:33:26.226Z,8.80
2018-09-03T08:34:26.194Z,8.50
2018-09-03T08:35:26.219Z,9.70
2018-09-03T08:36:26.137Z,10.80
2018-09-03T08:37:26.098Z,12.10
2018-09-03T08:38:26.067Z,9.50
2018-09-03T08:39:26.031Z,12.30
2018-09-03T08:40:25.995Z,13.40
2018-09-03T08:41:25.963Z,9.30
2018-09-03T08:42:25.930Z,10.40
2018-09-03T08:43:25.902Z,11.50
2018-09-03T08:44:25.866Z,10.50
2018-09-03T08:45:25.829Z,11.20
2018-09-03T08:46:25.802Z,10.50
2018-09-03T08:47:25.770Z,10.00
2018-09-03T08:48:25.737Z,10.60
2018-09-03T08:49:25.697Z,10.50
2018-09-03T08:50:25.721Z,10.20
2018-09-03T08:51:25.641Z,9.60
2018-09-03T08:52:25.596Z,9.80
2018-09-03T08:53:25.562Z,10.00
2018-09-03T08:54:25.529Z,10.50
2018-09-03T08:55:25.500Z,9.90
2018-09-03T08:56:25.467Z,10.00
2018-09-03T08:57:25.433Z,11.00
2018-09-03T08:58:25.405Z,10.00
2018-09-03T08:59:25.362Z,10.20
2018-09-03T09:00:25.329Z,11.20
2018-09-03T09:01:25.300Z,8.40
2018-09-03T09:02:25.268Z,9.30
2018-09-03T09:03:25.233Z,9.70
2018-09-03T09:04:25.205Z,10.20
2018-09-03T09:05:25.163Z,11.70
2018-09-03T09:06:25.129Z,9.60
2018-09-03T09:07:25.103Z,8.60
2018-09-03T09:08:25.072Z,14.10
2018-09-03T09:09:25.036Z,12.30
2018-09-03T09:10:25.001Z,9.60
2018-09-03T09:11:24.964Z,13.80
2018-09-03T09:12:24.931Z,10.10
2018-09-03T09:13:24.898Z,9.70
2018-09-03T09:14:24.867Z,11.70
2018-09-03T09:15:24.837Z,11.60
2018-09-03T09:16:24.801Z,9.50
2018-09-03T09:17:24.765Z,11.10
2018-09-03T09:18:24.732Z,10.80
2018-09-03T09:19:24.700Z,10.50
2018-09-03T09:20:24.669Z,10.40
2018-09-03T09:21:24.659Z,11.40
2018-09-03T09:22:24.605Z,9.70
2018-09-03T09:23:24.566Z,11.00
2018-09-03T09:24:24.581Z,9.00
2018-09-03T09:25:24.502Z,11.30
2018-09-03T09:26:24.471Z,11.10
2018-09-03T09:27:24.437Z,11.80
2018-09-03T09:28:24.407Z,10.40
2018-09-03T09:29:24.371Z,11.00
2018-09-03T09:30:24.341Z,11.90
2018-09-03T09:31:24.326Z,10.50
2018-09-03T09:32:24.270Z,10.70
2018-09-03T09:33:24.245Z,11.00
2018-09-03T09:34:24.213Z,12.30
2018-09-03T09:35:24.171Z,12.90
2018-09-03T09:36:24.139Z,12.40
2018-09-03T09:37:24.105Z,16.00
2018-09-03T09:38:24.073Z,13.10
2018-09-03T09:39:24.044Z,12.20
2018-09-03T09:40:24.009Z,12.10
2018-09-03T09:41:23.979Z,10.70
2018-09-03T09:42:23.946Z,13.80
2018-09-03T09:43:23.921Z,12.80
2018-09-03T09:44:23.878Z,11.20
2018-09-03T09:45:23.847Z,12.30
2018-09-03T09:46:23.816Z,13.70
2018-09-03T09:47:23.777Z,13.90
2018-09-03T09:48:23.749Z,11.40
2018-09-03T09:49:23.744Z,11.60
2018-09-03T09:50:23.672Z,12.00
2018-09-03T09:51:23.649Z,13.20
2018-09-03T09:52:23.611Z,15.10
2018-09-03T09:53:23.575Z,14.00
2018-09-03T09:54:23.545Z,14.90
2018-09-03T09:55:23.506Z,12.30
2018-09-03T09:56:23.474Z,13.10
2018-09-03T09:57:23.445Z,10.80
2018-09-03T09:58:23.406Z,13.10
2018-09-03T09:59:23.386Z,13.20
2018-09-03T10:00:23.344Z,13.30
2018-09-03T10:01:23.313Z,13.30
2018-09-03T10:02:23.282Z,11.90
2018-09-03T10:03:23.240Z,11.90
2018-09-03T10:04:23.258Z,12.80
2018-09-03T10:05:23.183Z,12.40
2018-09-03T10:06:23.149Z,14.00
2018-09-03T10:21:14.451Z,14.20
2018-09-03T10:22:14.383Z,15.30
2018-09-03T10:23:14.349Z,14.40
2018-09-03T10:24:14.304Z,15.20
2018-09-03T10:25:14.272Z,16.30
2018-09-03T10:26:14.239Z,12.30
2018-09-03T10:27:14.196Z,13.20
2018-09-03T10:28:14.170Z,13.30
2018-09-03T10:29:14.132Z,15.30
2018-09-03T10:30:14.097Z,11.70
2018-09-03T10:31:14.070Z,13.30
2018-09-03T10:32:14.025Z,13.30
2018-09-03T10:33:13.991Z,14.40
2018-09-03T10:34:13.956Z,13.00
2018-09-03T10:35:13.923Z,13.10
2018-09-03T10:36:13.896Z,17.00
2018-09-03T10:37:13.866Z,17.40
2018-09-03T10:38:13.833Z,14.60
2018-09-03T10:39:13.790Z,16.00
2018-09-03T10:40:13.765Z,12.60
2018-09-03T10:41:13.727Z,13.10
2018-09-03T10:42:13.693Z,13.50
2018-09-03T10:43:13.665Z,11.50
2018-09-03T10:44:13.624Z,11.40
2018-09-03T10:45:13.598Z,16.50
2018-09-03T10:46:13.560Z,13.30
2018-09-03T10:47:13.631Z,15.00
2018-09-03T10:48:13.501Z,13.70
2018-09-03T10:49:13.471Z,11.60
2018-09-03T10:50:13.431Z,13.80
2018-09-03T10:51:13.399Z,16.80
2018-09-03T10:52:13.363Z,11.90
2018-09-03T10:53:13.340Z,14.30
2018-09-03T10:54:13.304Z,13.60
2018-09-03T10:55:13.269Z,13.40
2018-09-03T10:56:13.244Z,12.10
2018-09-03T10:57:13.199Z,14.00
2018-09-03T10:58:13.170Z,14.10
2018-09-03T10:59:13.134Z,14.40
2018-09-03T11:00:13.106Z,13.60
2018-09-03T11:01:13.071Z,13.30
2018-09-03T11:02:13.040Z,13.50
2018-09-03T11:03:13.007Z,14.00
2018-09-03T11:04:12.972Z,13.90
2018-09-03T11:05:12.943Z,13.70
2018-09-03T11:06:12.908Z,15.20
2018-09-03T11:07:12.877Z,12.80
2018-09-03T11:08:12.851Z,15.10
2018-09-03T11:09:12.811Z,16.00
2018-09-03T11:10:12.777Z,14.00
2018-09-03T11:11:12.745Z,15.50
2018-09-03T11:12:12.717Z,13.50
2018-09-03T11:13:12.768Z,12.80
2018-09-03T11:14:12.667Z,15.60
2018-09-03T11:15:12.625Z,14.70
2018-09-03T11:16:12.584Z,15.30
2018-09-03T11:17:12.554Z,15.70
2018-09-03T11:18:12.522Z,15.30
2018-09-03T11:19:12.494Z,16.90
2018-09-03T11:20:12.463Z,15.30
2018-09-03T11:21:12.480Z,13.80
2018-09-03T11:22:12.397Z,17.60
2018-09-03T11:23:12.358Z,16.60
2018-09-03T11:24:12.334Z,14.00
2018-09-03T11:25:12.298Z,16.10
2018-09-03T11:26:12.264Z,13.60
2018-09-03T11:27:12.237Z,13.30
2018-09-03T11:28:12.205Z,13.30
2018-09-03T11:29:12.179Z,13.50
2018-09-03T11:30:12.137Z,13.90
2018-09-03T11:31:12.112Z,14.90
2018-09-03T11:32:12.075Z,15.50
2018-09-03T11:33:12.047Z,13.90
2018-09-03T11:34:12.017Z,14.00
2018-09-03T11:35:12.049Z,13.30
2018-09-03T11:36:11.959Z,13.80
2018-09-03T11:37:11.914Z,15.20
2018-09-03T11:38:11.881Z,13.20
2018-09-03T11:39:11.857Z,14.80
2018-09-03T11:40:11.814Z,13.90
2018-09-03T11:41:11.791Z,15.10
2018-09-03T11:42:11.755Z,14.50
2018-09-03T11:43:11.724Z,13.90
2018-09-03T11:44:11.686Z,14.70
2018-09-03T11:45:11.659Z,19.20
2018-09-03T11:46:11.623Z,14.80
2018-09-03T11:47:11.622Z,14.90
2018-09-03T11:48:11.565Z,15.00
2018-09-03T11:49:11.539Z,16.30
2018-09-03T11:50:11.497Z,14.40
2018-09-03T11:51:11.468Z,15.40
2018-09-03T11:52:11.456Z,15.90
2018-09-03T11:53:11.403Z,14.10
2018-09-03T11:54:11.371Z,15.30
2018-09-03T11:55:11.342Z,15.50
2018-09-03T11:56:11.317Z,13.90
2018-09-03T11:57:11.277Z,12.90
2018-09-03T11:58:11.244Z,11.70
2018-09-03T11:59:11.210Z,16.00
2018-09-03T12:00:11.191Z,15.60
2018-09-03T12:01:11.162Z,13.70
2018-09-03T12:02:11.128Z,13.60
2018-09-03T12:03:11.094Z,14.90
2018-09-03T12:04:11.056Z,16.50
2018-09-03T12:05:11.024Z,17.00
2018-09-03T12:06:10.991Z,16.30
2018-09-03T12:07:10.962Z,14.80
2018-09-03T12:08:10.931Z,18.00
2018-09-03T12:09:10.896Z,14.40
2018-09-03T12:10:10.868Z,17.90
2018-09-03T12:11:10.836Z,14.90
2018-09-03T12:12:10.799Z,16.40
2018-09-03T12:13:10.769Z,13.80
2018-09-03T12:14:10.738Z,13.60
2018-09-03T12:15:10.711Z,17.60
2018-09-03T12:16:10.676Z,16.00
2018-09-03T12:17:10.644Z,14.30
2018-09-03T12:18:10.610Z,13.00
2018-09-03T12:19:10.578Z,15.70
2018-09-03T12:20:10.552Z,17.50
2018-09-03T12:21:10.547Z,16.20
2018-09-03T12:22:10.487Z,13.10
2018-09-03T12:23:10.464Z,17.50
2018-09-03T12:24:10.425Z,15.00
2018-09-03T12:25:10.396Z,18.90
2018-09-03T12:26:10.361Z,16.00
2018-09-03T12:27:10.326Z,14.50
2018-09-03T12:28:10.300Z,14.50
2018-09-03T12:29:10.281Z,20.10
2018-09-03T12:30:10.235Z,16.70
2018-09-03T12:31:10.251Z,15.50
2018-09-03T12:32:10.176Z,17.10
2018-09-03T12:33:10.141Z,15.10
2018-09-03T12:34:10.110Z,17.90
2018-09-03T12:35:10.083Z,17.30
2018-09-03T12:36:10.048Z,14.90
2018-09-03T12:37:10.014Z,18.70
2018-09-03T12:38:09.987Z,14.30
2018-09-03T12:39:09.947Z,19.20
2018-09-03T12:40:09.923Z,19.50
2018-09-03T12:41:09.922Z,17.10
2018-09-03T12:42:09.858Z,14.60
2018-09-03T12:43:09.833Z,15.80
2018-09-03T12:44:09.797Z,13.30
2018-09-03T12:45:09.763Z,15.10
2018-09-03T12:46:09.738Z,15.20
2018-09-03T12:47:09.704Z,16.70
2018-09-03T12:48:09.671Z,20.40
2018-09-03T12:49:09.636Z,17.40
2018-09-03T12:50:09.635Z,16.60
2018-09-03T12:51:09.581Z,17.50
2018-09-03T12:52:09.546Z,19.20
2018-09-03T12:53:09.513Z,15.40
2018-09-03T12:54:09.483Z,15.10
2018-09-03T12:55:09.452Z,15.70
2018-09-03T12:56:09.416Z,15.50
2018-09-03T12:57:09.387Z,18.10
2018-09-03T12:58:09.356Z,18.40
2018-09-03T12:59:09.323Z,17.40
2018-09-03T13:00:09.300Z,16.20
2018-09-03T13:01:09.269Z,15.00
2018-09-03T13:02:09.233Z,20.60
2018-09-03T13:03:09.223Z,17.00
2018-09-03T13:04:09.174Z,19.40
2018-09-03T13:05:09.139Z,19.50
2018-09-03T13:06:09.114Z,17.30
2018-09-03T13:07:09.078Z,16.30
2018-09-03T13:08:09.042Z,21.90
2018-09-03T13:09:09.013Z,20.30
2018-09-03T13:10:08.982Z,19.40
2018-09-03T13:11:08.953Z,21.00
2018-09-03T13:12:08.925Z,16.60
2018-09-03T13:13:08.891Z,19.00
2018-09-03T13:14:08.858Z,18.30
2018-09-03T13:15:08.836Z,17.90
2018-09-03T13:16:08.798Z,16.80
2018-09-03T13:17:08.770Z,22.20
2018-09-03T13:18:08.736Z,20.60
2018-09-03T13:19:08.712Z,22.40
2018-09-03T13:20:08.670Z,18.50
2018-09-03T13:21:08.639Z,21.20
2018-09-03T13:22:08.608Z,24.00
2018-09-03T13:23:08.574Z,24.20
2018-09-03T13:24:08.547Z,23.20
2018-09-03T13:25:08.520Z,20.00
2018-09-03T13:26:08.483Z,25.20
2018-09-03T13:27:08.464Z,20.20
2018-09-03T13:28:08.418Z,22.60
2018-09-03T13:29:08.393Z,23.70
2018-09-03T13:30:08.357Z,25.90
2018-09-03T13:31:08.325Z,23.70
2018-09-03T13:32:08.307Z,23.00
2018-09-03T13:33:08.268Z,20.50
2018-09-03T13:34:08.235Z,20.50
2018-09-03T13:35:08.206Z,19.20